sensor_id;sensor_type;location;lat;lon;timestamp;P1;durP1;ratioP1;P2;durP2;ratioP2
5678;SDS011;2862;52.560;13.566;2022-10-14T00:00:14;65.17;;;31.07;;
5678;SDS011;2862;52.560;13.566;2022-10-14T00:10:19;62.53;;;29.90;;
5678;SDS011;2862;52.560;13.566;2022-10-14T00:20:23;67.20;;;31.60;;
5678;SDS011;2862;52.560;13.566;2022-10-14T00:30:28;63.20;;;29.13;;
5678;SDS011;2862;52.560;13.566;2022-10-14T00:40:33;68.30;;;29.73;;
5678;SDS011;2862;52.560;13.566;2022-10-14T00:50:37;62.17;;;30.10;;
5678;SDS011;2862;52.560;13.566;2022-10-14T01:00:43;62.37;;;28.93;;
5678;SDS011;2862;52.560;13.566;2022-10-14T01:10:49;61.30;;;30.70;;
5678;SDS011;2862;52.560;13.566;2022-10-14T01:21:03;57.40;;;29.10;;
5678;SDS011;2862;52.560;13.566;2022-10-14T01:31:16;65.57;;;30.07;;
5678;SDS011;2862;52.560;13.566;2022-10-14T01:41:24;61.50;;;28.50;;
5678;SDS011;2862;52.560;13.566;2022-10-14T01:51:35;65.77;;;29.53;;
5678;SDS011;2862;52.560;13.566;2022-10-14T02:01:43;56.30;;;28.07;;
5678;SDS011;2862;52.560;13.566;2022-10-14T02:11:53;72.77;;;28.97;;
5678;SDS011;2862;52.560;13.566;2022-10-14T02:22:07;49.63;;;24.43;;
5678;SDS011;2862;52.560;13.566;2022-10-14T02:32:18;53.07;;;25.00;;
5678;SDS011;2862;52.560;13.566;2022-10-14T02:42:23;55.27;;;27.23;;
5678;SDS011;2862;52.560;13.566;2022-10-14T02:52:30;63.67;;;27.10;;
5678;SDS011;2862;52.560;13.566;2022-10-14T03:02:33;58.13;;;26.67;;
5678;SDS011;2862;52.560;13.566;2022-10-14T03:12:39;62.20;;;29.77;;
5678;SDS011;2862;52.560;13.566;2022-10-14T03:22:50;63.90;;;29.07;;
5678;SDS011;2862;52.560;13.566;2022-10-14T03:32:54;63.90;;;26.47;;
5678;SDS011;2862;52.560;13.566;2022-10-14T03:43:17;59.17;;;27.17;;
5678;SDS011;2862;52.560;13.566;2022-10-14T03:53:32;56.43;;;25.40;;
5678;SDS011;2862;52.560;13.566;2022-10-14T04:03:35;50.27;;;23.77;;
5678;SDS011;2862;52.560;13.566;2022-10-14T04:13:40;60.50;;;25.77;;
5678;SDS011;2862;52.560;13.566;2022-10-14T04:23:43;57.97;;;25.60;;
5678;SDS011;2862;52.560;13.566;2022-10-14T04:33:51;57.60;;;23.17;;
5678;SDS011;2862;52.560;13.566;2022-10-14T04:44:02;64.80;;;23.90;;
5678;SDS011;2862;52.560;13.566;2022-10-14T04:54:12;53.80;;;23.93;;
5678;SDS011;2862;52.560;13.566;2022-10-14T05:04:34;65.23;;;28.33;;
5678;SDS011;2862;52.560;13.566;2022-10-14T05:14:38;51.47;;;23.67;;
5678;SDS011;2862;52.560;13.566;2022-10-14T05:24:51;57.80;;;23.27;;
5678;SDS011;2862;52.560;13.566;2022-10-14T05:34:56;50.20;;;23.17;;
5678;SDS011;2862;52.560;13.566;2022-10-14T05:45:06;50.33;;;23.30;;
5678;SDS011;2862;52.560;13.566;2022-10-14T05:55:17;50.10;;;21.90;;
5678;SDS011;2862;52.560;13.566;2022-10-14T06:05:21;62.60;;;31.87;;
5678;SDS011;2862;52.560;13.566;2022-10-14T06:15:27;44.43;;;19.27;;
5678;SDS011;2862;52.560;13.566;2022-10-14T06:25:29;60.93;;;29.67;;
5678;SDS011;2862;52.560;13.566;2022-10-14T06:35:34;49.70;;;22.63;;
5678;SDS011;2862;52.560;13.566;2022-10-14T06:45:37;48.70;;;23.23;;
5678;SDS011;2862;52.560;13.566;2022-10-14T06:55:41;55.43;;;24.60;;
5678;SDS011;2862;52.560;13.566;2022-10-14T07:05:44;47.83;;;22.33;;
5678;SDS011;2862;52.560;13.566;2022-10-14T07:15:48;57.47;;;23.03;;
5678;SDS011;2862;52.560;13.566;2022-10-14T07:25:54;55.13;;;22.73;;
5678;SDS011;2862;52.560;13.566;2022-10-14T07:36:00;58.23;;;22.77;;
5678;SDS011;2862;52.560;13.566;2022-10-14T07:46:04;51.30;;;23.43;;
5678;SDS011;2862;52.560;13.566;2022-10-14T07:56:09;47.80;;;20.73;;
5678;SDS011;2862;52.560;13.566;2022-10-14T08:06:13;57.33;;;26.40;;
5678;SDS011;2862;52.560;13.566;2022-10-14T08:16:19;51.23;;;21.93;;
5678;SDS011;2862;52.560;13.566;2022-10-14T08:26:26;52.10;;;21.07;;
5678;SDS011;2862;52.560;13.566;2022-10-14T08:36:32;47.73;;;23.00;;
5678;SDS011;2862;52.560;13.566;2022-10-14T08:46:37;48.97;;;21.83;;
5678;SDS011;2862;52.560;13.566;2022-10-14T08:56:44;50.70;;;24.17;;
5678;SDS011;2862;52.560;13.566;2022-10-14T09:06:47;47.50;;;20.73;;
5678;SDS011;2862;52.560;13.566;2022-10-14T09:16:54;48.90;;;20.90;;
5678;SDS011;2862;52.560;13.566;2022-10-14T09:27:02;45.67;;;20.60;;
5678;SDS011;2862;52.560;13.566;2022-10-14T09:37:21;48.60;;;17.90;;
5678;SDS011;2862;52.560;13.566;2022-10-14T09:47:27;48.00;;;24.63;;
5678;SDS011;2862;52.560;13.566;2022-10-14T09:57:32;47.40;;;19.77;;
5678;SDS011;2862;52.560;13.566;2022-10-14T10:07:35;48.67;;;17.13;;
5678;SDS011;2862;52.560;13.566;2022-10-14T10:17:39;45.33;;;16.50;;
5678;SDS011;2862;52.560;13.566;2022-10-14T10:27:42;41.63;;;15.87;;
5678;SDS011;2862;52.560;13.566;2022-10-14T10:37:51;35.60;;;14.10;;
5678;SDS011;2862;52.560;13.566;2022-10-14T10:48:08;42.90;;;15.10;;
5678;SDS011;2862;52.560;13.566;2022-10-14T10:58:21;40.13;;;16.70;;
5678;SDS011;2862;52.560;13.566;2022-10-14T11:08:45;40.27;;;16.20;;
5678;SDS011;2862;52.560;13.566;2022-10-14T11:19:19;39.73;;;15.90;;
5678;SDS011;2862;52.560;13.566;2022-10-14T11:29:33;37.90;;;16.13;;
5678;SDS011;2862;52.560;13.566;2022-10-14T11:39:48;41.77;;;15.20;;
5678;SDS011;2862;52.560;13.566;2022-10-14T11:49:57;40.43;;;16.23;;
5678;SDS011;2862;52.560;13.566;2022-10-14T12:00:05;38.87;;;14.40;;
5678;SDS011;2862;52.560;13.566;2022-10-14T12:10:18;34.67;;;12.60;;
5678;SDS011;2862;52.560;13.566;2022-10-14T12:20:31;37.70;;;14.27;;
5678;SDS011;2862;52.560;13.566;2022-10-14T12:30:42;39.67;;;14.30;;
5678;SDS011;2862;52.560;13.566;2022-10-14T12:40:46;36.50;;;14.50;;
5678;SDS011;2862;52.560;13.566;2022-10-14T12:50:52;36.03;;;12.40;;
5678;SDS011;2862;52.560;13.566;2022-10-14T13:01:01;32.03;;;10.27;;
5678;SDS011;2862;52.560;13.566;2022-10-14T13:11:09;30.80;;;10.67;;
5678;SDS011;2862;52.560;13.566;2022-10-14T13:21:24;26.37;;;9.60;;
5678;SDS011;2862;52.560;13.566;2022-10-14T13:31:34;31.50;;;9.93;;
5678;SDS011;2862;52.560;13.566;2022-10-14T13:41:43;28.40;;;7.77;;
5678;SDS011;2862;52.560;13.566;2022-10-14T13:51:51;26.40;;;7.40;;
5678;SDS011;2862;52.560;13.566;2022-10-14T14:02:03;24.90;;;6.17;;
5678;SDS011;2862;52.560;13.566;2022-10-14T14:12:17;29.30;;;8.00;;
5678;SDS011;2862;52.560;13.566;2022-10-14T14:22:25;28.37;;;7.57;;
5678;SDS011;2862;52.560;13.566;2022-10-14T14:32:30;26.73;;;6.57;;
5678;SDS011;2862;52.560;13.566;2022-10-14T14:42:37;24.27;;;6.40;;
5678;SDS011;2862;52.560;13.566;2022-10-14T14:52:43;26.23;;;8.87;;
5678;SDS011;2862;52.560;13.566;2022-10-14T15:02:51;34.87;;;9.40;;
5678;SDS011;2862;52.560;13.566;2022-10-14T15:13:02;25.67;;;9.00;;
5678;SDS011;2862;52.560;13.566;2022-10-14T15:35:04;25.53;;;7.60;;
5678;SDS011;2862;52.560;13.566;2022-10-14T15:45:14;22.37;;;5.87;;
5678;SDS011;2862;52.560;13.566;2022-10-14T15:55:18;27.67;;;6.73;;
5678;SDS011;2862;52.560;13.566;2022-10-14T16:05:24;34.93;;;8.17;;
5678;SDS011;2862;52.560;13.566;2022-10-14T16:15:30;28.80;;;8.30;;
5678;SDS011;2862;52.560;13.566;2022-10-14T16:25:40;27.57;;;7.57;;
5678;SDS011;2862;52.560;13.566;2022-10-14T16:35:45;28.70;;;8.17;;
5678;SDS011;2862;52.560;13.566;2022-10-14T16:45:57;29.40;;;9.90;;
5678;SDS011;2862;52.560;13.566;2022-10-14T16:56:01;30.83;;;9.00;;
5678;SDS011;2862;52.560;13.566;2022-10-14T17:06:07;28.43;;;8.43;;
5678;SDS011;2862;52.560;13.566;2022-10-14T17:16:22;25.43;;;7.53;;
5678;SDS011;2862;52.560;13.566;2022-10-14T17:26:27;26.50;;;7.40;;
5678;SDS011;2862;52.560;13.566;2022-10-14T17:36:31;30.33;;;8.47;;
5678;SDS011;2862;52.560;13.566;2022-10-14T17:46:35;25.00;;;7.73;;
5678;SDS011;2862;52.560;13.566;2022-10-14T17:56:38;26.60;;;9.20;;
5678;SDS011;2862;52.560;13.566;2022-10-14T18:06:43;25.47;;;8.33;;
5678;SDS011;2862;52.560;13.566;2022-10-14T18:16:46;29.87;;;8.00;;
5678;SDS011;2862;52.560;13.566;2022-10-14T18:26:51;27.03;;;7.47;;
5678;SDS011;2862;52.560;13.566;2022-10-14T18:36:54;27.17;;;7.57;;
5678;SDS011;2862;52.560;13.566;2022-10-14T18:46:58;37.03;;;8.27;;
5678;SDS011;2862;52.560;13.566;2022-10-14T18:57:01;25.13;;;7.90;;
5678;SDS011;2862;52.560;13.566;2022-10-14T19:07:05;28.40;;;8.37;;
5678;SDS011;2862;52.560;13.566;2022-10-14T19:17:08;26.63;;;8.23;;
5678;SDS011;2862;52.560;13.566;2022-10-14T19:27:13;27.73;;;8.80;;
5678;SDS011;2862;52.560;13.566;2022-10-14T19:37:16;34.93;;;12.33;;
5678;SDS011;2862;52.560;13.566;2022-10-14T19:47:22;27.73;;;9.87;;
5678;SDS011;2862;52.560;13.566;2022-10-14T19:57:25;32.30;;;9.37;;
5678;SDS011;2862;52.560;13.566;2022-10-14T20:07:29;28.50;;;9.50;;
5678;SDS011;2862;52.560;13.566;2022-10-14T20:17:32;29.30;;;11.20;;
5678;SDS011;2862;52.560;13.566;2022-10-14T20:27:36;30.33;;;10.90;;
5678;SDS011;2862;52.560;13.566;2022-10-14T20:37:39;33.80;;;13.73;;
5678;SDS011;2862;52.560;13.566;2022-10-14T20:47:43;32.67;;;13.00;;
5678;SDS011;2862;52.560;13.566;2022-10-14T20:57:51;38.50;;;14.97;;
5678;SDS011;2862;52.560;13.566;2022-10-14T21:07:55;38.40;;;15.83;;
5678;SDS011;2862;52.560;13.566;2022-10-14T21:17:58;42.67;;;17.50;;
5678;SDS011;2862;52.560;13.566;2022-10-14T21:28:03;42.20;;;18.37;;
5678;SDS011;2862;52.560;13.566;2022-10-14T21:38:06;45.63;;;17.77;;
5678;SDS011;2862;52.560;13.566;2022-10-14T21:48:13;44.77;;;20.30;;
5678;SDS011;2862;52.560;13.566;2022-10-14T21:58:16;44.90;;;21.30;;
5678;SDS011;2862;52.560;13.566;2022-10-14T22:08:21;43.13;;;19.63;;
5678;SDS011;2862;52.560;13.566;2022-10-14T22:18:24;45.17;;;21.63;;
5678;SDS011;2862;52.560;13.566;2022-10-14T22:28:30;45.50;;;21.13;;
5678;SDS011;2862;52.560;13.566;2022-10-14T22:38:33;46.60;;;21.17;;
5678;SDS011;2862;52.560;13.566;2022-10-14T22:48:38;47.80;;;22.20;;
5678;SDS011;2862;52.560;13.566;2022-10-14T22:58:42;52.10;;;21.70;;
5678;SDS011;2862;52.560;13.566;2022-10-14T23:08:46;47.57;;;20.93;;
5678;SDS011;2862;52.560;13.566;2022-10-14T23:18:50;47.33;;;23.17;;
5678;SDS011;2862;52.560;13.566;2022-10-14T23:28:56;50.57;;;22.30;;
5678;SDS011;2862;52.560;13.566;2022-10-14T23:39:00;56.83;;;22.13;;
5678;SDS011;2862;52.560;13.566;2022-10-14T23:49:04;47.47;;;21.60;;
5678;SDS011;2862;52.560;13.566;2022-10-14T23:59:14;52.53;;;23.20;;
